Time,TemperatureF,DewpointF,PressureIn,WindDirection,WindDirectionDegrees,WindSpeedMPH,WindSpeedGustMPH,Humidity,HourlyPrecipIn,Conditions,Clouds,dailyrainin,SolarRadiationWatts/m^2,SoftwareType,DateUTC
2013-02-20 00:06:00,31.5,28.6,29.88,NNW,330,0.0,2.0,89,0.00,,,0.23,0,Wunderground v.1.15,2013-02-20 08:06:00,
2013-02-20 00:12:00,31.4,28.5,29.88,NNW,330,0.0,2.0,89,0.00,,,0.23,0,Wunderground v.1.15,2013-02-20 08:12:00,
2013-02-20 00:18:00,31.2,28.3,29.88,NNW,330,0.0,2.0,89,0.00,,,0.23,0,Wunderground v.1.15,2013-02-20 08:18:00,
2013-02-20 00:24:00,31.0,28.1,29.88,NNW,330,0.0,2.0,89,0.00,,,0.23,0,Wunderground v.1.15,2013-02-20 08:24:00,
2013-02-20 00:30:00,30.9,28.0,29.89,NNW,330,0.0,2.0,89,0.00,,,0.23,0,Wunderground v.1.15,2013-02-20 08:30:00,
2013-02-20 00:36:00,30.8,27.9,29.88,NNW,330,0.0,2.0,89,0.00,,,0.23,0,Wunderground v.1.15,2013-02-20 08:36:00,
2013-02-20 00:42:00,30.7,28.1,29.88,NNW,330,0.0,2.0,90,0.00,,,0.23,0,Wunderground v.1.15,2013-02-20 08:42:00,
2013-02-20 00:48:00,30.7,28.1,29.88,NNW,330,0.0,2.0,90,0.00,,,0.23,0,Wunderground v.1.15,2013-02-20 08:48:00,
2013-02-20 00:54:00,30.6,28.0,29.88,NNW,330,0.0,2.0,90,0.00,,,0.23,0,Wunderground v.1.15,2013-02-20 08:54:00,
2013-02-20 01:00:00,30.5,27.9,29.89,NNW,330,0.0,1.0,90,0.00,,,0.23,0,Wunderground v.1.15,2013-02-20 09:00:00,
2013-02-20 01:06:00,30.3,27.7,29.89,NNW,330,0.0,1.0,90,0.00,,,0.23,0,Wunderground v.1.15,2013-02-20 09:06:00,
2013-02-20 01:12:00,30.1,27.5,29.89,NNW,330,0.0,1.0,90,0.00,,,0.23,0,Wunderground v.1.15,2013-02-20 09:12:00,
2013-02-20 01:18:00,29.9,27.3,29.89,NNW,330,0.0,1.0,90,0.00,,,0.23,0,Wunderground v.1.15,2013-02-20 09:18:00,
2013-02-20 01:23:00,29.8,27.2,29.89,NNW,330,0.0,1.0,90,0.00,,,0.23,0,Wunderground v.1.15,2013-02-20 09:23:00,
2013-02-20 01:29:00,29.7,27.1,29.89,NNW,330,0.0,1.0,90,0.00,,,0.23,0,Wunderground v.1.15,2013-02-20 09:29:00,
2013-02-20 01:35:00,29.7,27.1,29.89,NNW,330,0.0,1.0,90,0.00,,,0.23,0,Wunderground v.1.15,2013-02-20 09:35:00,
2013-02-20 01:41:00,29.7,27.1,29.90,NNW,330,0.0,1.0,90,0.00,,,0.23,0,Wunderground v.1.15,2013-02-20 09:41:00,
2013-02-20 01:48:00,29.7,27.4,29.90,NNW,330,0.0,1.0,91,0.00,,,0.23,0,Wunderground v.1.15,2013-02-20 09:48:00,
2013-02-20 01:54:00,29.7,27.4,29.90,NNW,330,0.0,1.0,91,0.00,,,0.23,0,Wunderground v.1.15,2013-02-20 09:54:00,
2013-02-20 02:00:00,30.1,27.8,29.91,NNW,330,0.0,2.0,91,0.00,,,0.23,0,Wunderground v.1.15,2013-02-20 10:00:00,
2013-02-20 02:06:00,30.2,27.9,29.90,NNW,330,0.0,2.0,91,0.00,,,0.23,0,Wunderground v.1.15,2013-02-20 10:06:00,
2013-02-20 02:12:00,30.2,27.9,29.91,NNW,330,0.0,2.0,91,0.00,,,0.23,0,Wunderground v.1.15,2013-02-20 10:12:00,
2013-02-20 02:18:00,30.3,28.0,29.91,NNW,330,0.0,2.0,91,0.00,,,0.23,0,Wunderground v.1.15,2013-02-20 10:18:00,
2013-02-20 02:24:00,30.3,28.0,29.91,NNW,330,0.0,2.0,91,0.00,,,0.23,0,Wunderground v.1.15,2013-02-20 10:24:00,
2013-02-20 02:30:00,30.2,27.9,29.91,NNW,330,0.0,2.0,91,0.00,,,0.23,0,Wunderground v.1.15,2013-02-20 10:30:00,
2013-02-20 02:36:00,30.2,27.9,29.91,NNW,330,0.0,2.0,91,0.00,,,0.23,0,Wunderground v.1.15,2013-02-20 10:36:00,
2013-02-20 02:42:00,30.2,27.9,29.91,NNW,330,0.0,2.0,91,0.00,,,0.23,0,Wunderground v.1.15,2013-02-20 10:42:00,
2013-02-20 02:48:00,30.2,27.9,29.91,NNW,330,0.0,2.0,91,0.00,,,0.23,0,Wunderground v.1.15,2013-02-20 10:48:00,
2013-02-20 02:53:00,30.1,27.8,29.91,NNW,330,0.0,2.0,91,0.00,,,0.23,0,Wunderground v.1.15,2013-02-20 10:53:00,
2013-02-20 03:00:00,29.9,27.6,29.91,NNW,330,0.0,2.0,91,0.00,,,0.23,0,Wunderground v.1.15,2013-02-20 11:00:00,
2013-02-20 03:05:00,29.8,27.5,29.91,NNW,330,0.0,2.0,91,0.00,,,0.23,0,Wunderground v.1.15,2013-02-20 11:05:00,
2013-02-20 03:12:00,29.7,27.4,29.92,NNW,330,0.0,2.0,91,0.00,,,0.23,0,Wunderground v.1.15,2013-02-20 11:12:00,
2013-02-20 03:18:00,29.7,27.4,29.92,NNW,330,0.0,2.0,91,0.00,,,0.23,0,Wunderground v.1.15,2013-02-20 11:18:00,
2013-02-20 03:23:00,29.7,27.7,29.92,NNW,330,0.0,2.0,92,0.00,,,0.23,0,Wunderground v.1.15,2013-02-20 11:23:00,
2013-02-20 03:30:00,29.9,27.9,29.92,NNW,330,0.0,2.0,92,0.00,,,0.23,0,Wunderground v.1.15,2013-02-20 11:30:00,
2013-02-20 03:36:00,30.1,28.1,29.92,NNW,330,0.0,2.0,92,0.00,,,0.23,0,Wunderground v.1.15,2013-02-20 11:36:00,
2013-02-20 03:41:00,30.4,28.4,29.92,NE,46,0.0,2.0,92,0.00,,,0.23,0,Wunderground v.1.15,2013-02-20 11:41:00,
2013-02-20 03:48:00,30.6,28.6,29.92,NE,42,0.0,3.0,92,0.00,,,0.23,0,Wunderground v.1.15,2013-02-20 11:48:00,
2013-02-20 03:54:00,30.8,28.8,29.92,NE,42,0.0,2.0,92,0.00,,,0.23,0,Wunderground v.1.15,2013-02-20 11:54:00,
2013-02-20 04:00:00,30.8,28.8,29.92,NE,42,0.0,5.0,92,0.00,,,0.23,0,Wunderground v.1.15,2013-02-20 12:00:00,
2013-02-20 04:06:00,30.7,28.7,29.92,NE,42,0.0,5.0,92,0.00,,,0.23,0,Wunderground v.1.15,2013-02-20 12:06:00,
2013-02-20 04:12:00,30.5,28.5,29.92,NE,42,0.0,5.0,92,0.00,,,0.23,0,Wunderground v.1.15,2013-02-20 12:12:00,
2013-02-20 04:18:00,30.4,28.4,29.93,NE,42,0.0,5.0,92,0.00,,,0.23,0,Wunderground v.1.15,2013-02-20 12:18:00,
2013-02-20 04:24:00,30.3,28.3,29.93,NE,42,0.0,5.0,92,0.00,,,0.23,0,Wunderground v.1.15,2013-02-20 12:24:00,
2013-02-20 04:29:00,30.4,28.4,29.93,NE,41,0.0,5.0,92,0.00,,,0.23,0,Wunderground v.1.15,2013-02-20 12:29:00,
2013-02-20 04:36:00,30.3,28.3,29.93,NE,41,0.0,5.0,92,0.00,,,0.23,0,Wunderground v.1.15,2013-02-20 12:36:00,
2013-02-20 04:42:00,30.3,28.3,29.94,NE,41,0.0,5.0,92,0.00,,,0.23,0,Wunderground v.1.15,2013-02-20 12:42:00,
2013-02-20 04:48:00,30.4,28.4,29.93,NE,41,0.0,5.0,92,0.00,,,0.23,0,Wunderground v.1.15,2013-02-20 12:48:00,
2013-02-20 04:54:00,30.4,28.4,29.94,NE,41,0.0,5.0,92,0.00,,,0.23,0,Wunderground v.1.15,2013-02-20 12:54:00,
2013-02-20 05:00:00,30.3,28.3,29.94,NE,41,0.0,2.0,92,0.00,,,0.23,0,Wunderground v.1.15,2013-02-20 13:00:00,
2013-02-20 05:05:00,30.3,28.3,29.94,NNE,27,0.0,2.0,92,0.00,,,0.23,0,Wunderground v.1.15,2013-02-20 13:05:00,
2013-02-20 05:12:00,30.1,28.1,29.94,WNW,294,0.0,2.0,92,0.00,,,0.23,0,Wunderground v.1.15,2013-02-20 13:12:00,
2013-02-20 05:18:00,30.1,28.1,29.94,WNW,301,0.0,2.0,92,0.00,,,0.23,0,Wunderground v.1.15,2013-02-20 13:18:00,
2013-02-20 05:23:00,30.1,28.1,29.95,WNW,301,0.0,2.0,92,0.00,,,0.23,0,Wunderground v.1.15,2013-02-20 13:23:00,
2013-02-20 05:30:00,29.9,27.9,29.95,WNW,301,0.0,2.0,92,0.00,,,0.23,0,Wunderground v.1.15,2013-02-20 13:30:00,
2013-02-20 05:36:00,29.9,27.9,29.95,WNW,301,0.0,2.0,92,0.00,,,0.23,0,Wunderground v.1.15,2013-02-20 13:36:00,
2013-02-20 05:42:00,29.8,27.8,29.95,WNW,301,0.0,2.0,92,0.00,,,0.23,0,Wunderground v.1.15,2013-02-20 13:42:00,
2013-02-20 05:48:00,29.6,27.6,29.95,WNW,301,0.0,2.0,92,0.00,,,0.23,0,Wunderground v.1.15,2013-02-20 13:48:00,
2013-02-20 05:54:00,29.5,27.5,29.95,WNW,301,0.0,2.0,92,0.00,,,0.23,0,Wunderground v.1.15,2013-02-20 13:54:00,
2013-02-20 06:00:00,29.3,27.0,29.95,WNW,301,0.0,2.0,91,0.00,,,0.23,0,Wunderground v.1.15,2013-02-20 14:00:00,
2013-02-20 06:06:00,29.2,27.2,29.95,WNW,301,0.0,2.0,92,0.00,,,0.23,0,Wunderground v.1.15,2013-02-20 14:06:00,
2013-02-20 06:11:00,29.2,27.2,29.96,WNW,301,0.0,2.0,92,0.00,,,0.23,0,Wunderground v.1.15,2013-02-20 14:11:00,
2013-02-20 06:18:00,29.3,27.3,29.96,WNW,301,0.0,2.0,92,0.00,,,0.23,0,Wunderground v.1.15,2013-02-20 14:18:00,
2013-02-20 06:24:00,29.2,27.2,29.96,WNW,301,0.0,2.0,92,0.00,,,0.23,0,Wunderground v.1.15,2013-02-20 14:24:00,
2013-02-20 06:30:00,29.2,27.2,29.96,WNW,301,0.0,2.0,92,0.00,,,0.23,0,Wunderground v.1.15,2013-02-20 14:30:00,
2013-02-20 06:35:00,29.1,27.1,29.97,WNW,301,0.0,2.0,92,0.00,,,0.23,0,Wunderground v.1.15,2013-02-20 14:35:00,
2013-02-20 06:41:00,29.0,27.0,29.97,WNW,301,0.0,2.0,92,0.00,,,0.00,0,Wunderground v.1.15,2013-02-20 14:41:00,
2013-02-20 06:48:00,28.9,26.9,29.97,WNW,301,0.0,2.0,92,0.00,,,0.00,0,Wunderground v.1.15,2013-02-20 14:48:00,
2013-02-20 06:54:00,28.8,26.8,29.97,WNW,301,0.0,2.0,92,0.00,,,0.00,0,Wunderground v.1.15,2013-02-20 14:54:00,
2013-02-20 07:00:00,28.8,26.8,29.97,WNW,301,0.0,1.0,92,0.00,,,0.00,7,Wunderground v.1.15,2013-02-20 15:00:00,
2013-02-20 07:05:00,28.7,26.7,29.97,WNW,301,0.0,1.0,92,0.00,,,0.00,9,Wunderground v.1.15,2013-02-20 15:05:00,
2013-02-20 07:12:00,28.7,26.7,29.97,WNW,301,0.0,1.0,92,0.00,,,0.00,11,Wunderground v.1.15,2013-02-20 15:12:00,
2013-02-20 07:18:00,28.7,26.7,29.98,WNW,301,0.0,1.0,92,0.00,,,0.00,14,Wunderground v.1.15,2013-02-20 15:18:00,
2013-02-20 07:24:00,28.7,26.7,29.98,WNW,301,0.0,1.0,92,0.00,,,0.00,26,Wunderground v.1.15,2013-02-20 15:24:00,
2013-02-20 07:29:00,28.9,26.9,29.98,WNW,301,0.0,1.0,92,0.00,,,0.00,40,Wunderground v.1.15,2013-02-20 15:29:00,
2013-02-20 07:36:00,29.2,27.4,29.98,WNW,301,0.0,1.0,93,0.00,,,0.00,62,Wunderground v.1.15,2013-02-20 15:36:00,
2013-02-20 07:42:00,29.6,27.8,29.98,WNW,301,0.0,1.0,93,0.00,,,0.00,77,Wunderground v.1.15,2013-02-20 15:42:00,
2013-02-20 07:48:00,30.1,28.3,29.99,WNW,301,0.0,1.0,93,0.00,,,0.00,97,Wunderground v.1.15,2013-02-20 15:48:00,
2013-02-20 07:54:00,30.8,29.0,29.99,WNW,301,0.0,1.0,93,0.00,,,0.00,116,Wunderground v.1.15,2013-02-20 15:54:00,
2013-02-20 08:00:00,31.5,29.7,29.99,WNW,301,0.0,1.0,93,0.00,,,0.00,132,Wunderground v.1.15,2013-02-20 16:00:00,
2013-02-20 08:06:00,32.2,30.7,30.00,WNW,301,0.0,1.0,94,0.00,,,0.00,153,Wunderground v.1.15,2013-02-20 16:06:00,
2013-02-20 08:11:00,33.1,31.6,30.00,WNW,301,0.0,1.0,94,0.00,,,0.00,176,Wunderground v.1.15,2013-02-20 16:11:00,
2013-02-20 08:18:00,34.3,32.8,30.00,WNW,301,0.0,1.0,94,0.00,,,0.00,193,Wunderground v.1.15,2013-02-20 16:18:00,
2013-02-20 08:24:00,35.0,33.4,30.00,WNW,301,0.0,1.0,94,0.00,,,0.00,214,Wunderground v.1.15,2013-02-20 16:24:00,
2013-02-20 08:30:00,35.9,34.3,30.00,WNW,301,0.0,1.0,94,0.00,,,0.00,236,Wunderground v.1.15,2013-02-20 16:30:00,
2013-02-20 08:36:00,36.9,35.3,30.00,WNW,301,0.0,1.0,94,0.00,,,0.00,251,Wunderground v.1.15,2013-02-20 16:36:00,
2013-02-20 08:42:00,37.8,36.0,30.01,WNW,301,0.0,1.0,93,0.00,,,0.00,269,Wunderground v.1.15,2013-02-20 16:42:00,
2013-02-20 08:48:00,38.8,36.4,30.01,WNW,301,0.0,1.0,91,0.00,,,0.00,285,Wunderground v.1.15,2013-02-20 16:48:00,
2013-02-20 08:54:00,40.2,36.9,30.01,WNW,301,0.0,1.0,88,0.00,,,0.00,301,Wunderground v.1.15,2013-02-20 16:54:00,
2013-02-20 09:00:00,41.1,36.0,30.01,NNW,327,1.0,1.0,82,0.00,,,0.00,316,Wunderground v.1.15,2013-02-20 17:00:00,
2013-02-20 09:06:00,41.9,35.5,30.01,NNW,331,2.0,5.0,78,0.00,,,0.00,332,Wunderground v.1.15,2013-02-20 17:06:00,
2013-02-20 09:12:00,42.5,35.1,30.02,NW,321,4.0,5.0,75,0.00,,,0.00,348,Wunderground v.1.15,2013-02-20 17:12:00,
2013-02-20 09:17:00,43.1,35.0,30.01,NNW,335,4.0,5.0,73,0.00,,,0.00,364,Wunderground v.1.15,2013-02-20 17:17:00,
2013-02-20 09:24:00,43.7,35.3,30.01,NW,319,4.0,5.0,72,0.00,,,0.00,394,Wunderground v.1.15,2013-02-20 17:24:00,
2013-02-20 09:30:00,44.5,35.7,30.02,NNW,340,3.0,6.0,71,0.00,,,0.00,415,Wunderground v.1.15,2013-02-20 17:30:00,
2013-02-20 09:36:00,45.0,35.1,30.02,West,275,5.0,9.0,68,0.00,,,0.00,431,Wunderground v.1.15,2013-02-20 17:36:00,
2013-02-20 09:41:00,45.2,35.3,30.02,NW,315,6.0,7.0,68,0.00,,,0.00,445,Wunderground v.1.15,2013-02-20 17:41:00,
2013-02-20 09:47:00,45.4,35.1,30.02,NW,318,6.0,10.0,67,0.00,,,0.00,461,Wunderground v.1.15,2013-02-20 17:47:00,
2013-02-20 09:54:00,45.9,35.6,30.03,North,355,6.0,8.0,67,0.00,,,0.00,476,Wunderground v.1.15,2013-02-20 17:54:00,
2013-02-20 10:00:00,46.3,35.2,30.03,NW,309,6.0,6.0,65,0.00,,,0.00,492,Wunderground v.1.15,2013-02-20 18:00:00,
2013-02-20 10:06:00,46.7,35.6,30.03,NNW,333,5.0,11.0,65,0.00,,,0.00,506,Wunderground v.1.15,2013-02-20 18:06:00,
2013-02-20 10:11:00,47.2,35.6,30.03,NNW,336,4.0,11.0,64,0.00,,,0.00,520,Wunderground v.1.15,2013-02-20 18:11:00,
2013-02-20 10:18:00,47.6,36.0,30.03,NW,306,5.0,11.0,64,0.00,,,0.00,534,Wunderground v.1.15,2013-02-20 18:18:00,
2013-02-20 10:24:00,48.1,36.1,30.02,NNW,338,4.0,11.0,63,0.00,,,0.00,545,Wunderground v.1.15,2013-02-20 18:24:00,
2013-02-20 10:30:00,48.7,36.3,30.03,WNW,286,4.0,4.0,62,0.00,,,0.00,557,Wunderground v.1.15,2013-02-20 18:30:00,
2013-02-20 10:36:00,49.4,36.5,30.02,West,272,4.0,11.0,61,0.00,,,0.00,568,Wunderground v.1.15,2013-02-20 18:36:00,
2013-02-20 10:42:00,50.4,37.0,30.02,WNW,291,2.0,11.0,60,0.00,,,0.00,580,Wunderground v.1.15,2013-02-20 18:42:00,
2013-02-20 10:48:00,50.8,36.1,30.02,North,355,3.0,11.0,57,0.00,,,0.00,591,Wunderground v.1.15,2013-02-20 18:48:00,
2013-02-20 10:54:00,50.7,36.0,30.02,West,261,5.0,11.0,57,0.00,,,0.00,599,Wunderground v.1.15,2013-02-20 18:54:00,
2013-02-20 11:00:00,51.2,36.0,30.02,NW,314,4.0,4.0,56,0.00,,,0.00,610,Wunderground v.1.15,2013-02-20 19:00:00,
2013-02-20 11:05:00,51.6,35.9,30.02,WNW,289,4.0,11.0,55,0.00,,,0.00,617,Wunderground v.1.15,2013-02-20 19:05:00,
2013-02-20 11:11:00,51.8,35.7,30.02,West,269,5.0,11.0,54,0.00,,,0.00,626,Wunderground v.1.15,2013-02-20 19:11:00,
2013-02-20 11:17:00,52.1,36.4,30.02,NNW,336,6.0,11.0,55,0.00,,,0.00,631,Wunderground v.1.15,2013-02-20 19:17:00,
2013-02-20 11:24:00,52.6,36.4,30.02,WSW,256,5.0,11.0,54,0.00,,,0.00,642,Wunderground v.1.15,2013-02-20 19:24:00,
2013-02-20 11:30:00,53.0,36.3,30.01,WNW,292,6.0,6.0,53,0.00,,,0.00,647,Wunderground v.1.15,2013-02-20 19:30:00,
2013-02-20 11:35:00,53.1,36.4,30.02,WSW,247,7.0,11.0,53,0.00,,,0.00,652,Wunderground v.1.15,2013-02-20 19:35:00,
2013-02-20 11:42:00,53.6,36.4,30.01,NW,311,6.0,11.0,52,0.00,,,0.00,657,Wunderground v.1.15,2013-02-20 19:42:00,
2013-02-20 11:48:00,54.2,36.5,30.01,West,265,6.0,11.0,51,0.00,,,0.00,661,Wunderground v.1.15,2013-02-20 19:48:00,
2013-02-20 11:53:00,54.2,36.5,30.02,WNW,294,7.0,14.0,51,0.00,,,0.00,666,Wunderground v.1.15,2013-02-20 19:53:00,
2013-02-20 12:00:00,54.6,36.3,30.02,NW,306,7.0,15.0,50,0.00,,,0.00,668,Wunderground v.1.15,2013-02-20 20:00:00,
2013-02-20 12:05:00,55.0,36.2,30.02,NNW,330,7.0,15.0,49,0.00,,,0.00,671,Wunderground v.1.15,2013-02-20 20:05:00,
2013-02-20 12:12:00,55.1,36.3,30.01,WNW,289,7.0,15.0,49,0.00,,,0.00,677,Wunderground v.1.15,2013-02-20 20:12:00,
2013-02-20 12:17:00,55.7,36.3,30.01,WNW,289,5.0,15.0,48,0.00,,,0.00,679,Wunderground v.1.15,2013-02-20 20:17:00,
2013-02-20 12:24:00,56.4,36.9,30.01,WNW,288,5.0,15.0,48,0.00,,,0.00,675,Wunderground v.1.15,2013-02-20 20:24:00,
2013-02-20 12:30:00,56.4,36.4,30.01,West,269,6.0,15.0,47,0.00,,,0.00,673,Wunderground v.1.15,2013-02-20 20:30:00,
2013-02-20 12:36:00,56.7,36.7,30.01,WSW,248,6.0,15.0,47,0.00,,,0.00,694,Wunderground v.1.15,2013-02-20 20:36:00,
2013-02-20 12:42:00,57.1,36.5,30.00,WNW,294,6.0,15.0,46,0.00,,,0.00,545,Wunderground v.1.15,2013-02-20 20:42:00,
2013-02-20 12:48:00,57.5,36.3,30.00,West,268,5.0,15.0,45,0.00,,,0.00,680,Wunderground v.1.15,2013-02-20 20:48:00,
2013-02-20 12:53:00,57.9,36.1,30.01,NNW,329,4.0,15.0,44,0.00,,,0.00,628,Wunderground v.1.15,2013-02-20 20:53:00,
2013-02-20 13:00:00,58.1,35.7,30.00,NW,317,5.0,16.0,43,0.00,,,0.00,533,Wunderground v.1.15,2013-02-20 21:00:00,
2013-02-20 13:05:00,58.0,35.6,30.00,West,277,6.0,16.0,43,0.00,,,0.00,508,Wunderground v.1.15,2013-02-20 21:05:00,
2013-02-20 13:11:00,58.0,36.2,29.99,WSW,250,6.0,16.0,44,0.00,,,0.00,652,Wunderground v.1.15,2013-02-20 21:11:00,
2013-02-20 13:17:00,58.2,35.8,29.99,West,275,6.0,16.0,43,0.00,,,0.00,673,Wunderground v.1.15,2013-02-20 21:17:00,
2013-02-20 13:23:00,58.2,35.8,29.99,WNW,292,7.0,16.0,43,0.00,,,0.00,608,Wunderground v.1.15,2013-02-20 21:23:00,
2013-02-20 13:29:00,58.2,36.4,29.99,WNW,294,6.0,16.0,44,0.00,,,0.00,427,Wunderground v.1.15,2013-02-20 21:29:00,
2013-02-20 13:36:00,58.1,36.3,29.99,WNW,295,5.0,16.0,44,0.00,,,0.00,654,Wunderground v.1.15,2013-02-20 21:36:00,
2013-02-20 13:42:00,58.6,36.2,29.99,WNW,303,5.0,16.0,43,0.00,,,0.00,635,Wunderground v.1.15,2013-02-20 21:42:00,
2013-02-20 13:47:00,58.7,35.0,29.98,NNW,348,5.0,16.0,41,0.00,,,0.00,624,Wunderground v.1.15,2013-02-20 21:47:00,
2013-02-20 13:54:00,59.1,36.0,29.98,WNW,286,5.0,16.0,42,0.00,,,0.00,615,Wunderground v.1.15,2013-02-20 21:54:00,
2013-02-20 14:00:00,59.4,35.7,29.98,WNW,284,6.0,14.0,41,0.00,,,0.00,606,Wunderground v.1.15,2013-02-20 22:00:00,
2013-02-20 14:05:00,59.6,35.9,29.98,NW,315,5.0,14.0,41,0.00,,,0.00,596,Wunderground v.1.15,2013-02-20 22:05:00,
2013-02-20 14:11:00,59.7,35.3,29.98,WNW,296,5.0,6.0,40,0.00,,,0.00,584,Wunderground v.1.15,2013-02-20 22:11:00,
2013-02-20 14:18:00,59.7,35.9,29.98,NW,304,4.0,14.0,41,0.00,,,0.00,575,Wunderground v.1.15,2013-02-20 22:18:00,
2013-02-20 14:23:00,59.9,34.9,29.98,NW,307,5.0,14.0,39,0.00,,,0.00,563,Wunderground v.1.15,2013-02-20 22:23:00,
2013-02-20 14:29:00,60.0,36.2,29.98,WNW,301,5.0,5.0,41,0.00,,,0.00,548,Wunderground v.1.15,2013-02-20 22:29:00,
2013-02-20 14:36:00,60.1,36.9,29.98,WNW,295,4.0,14.0,42,0.00,,,0.00,536,Wunderground v.1.15,2013-02-20 22:36:00,
2013-02-20 14:42:00,59.9,36.1,29.98,West,261,5.0,14.0,41,0.00,,,0.00,526,Wunderground v.1.15,2013-02-20 22:42:00,
2013-02-20 14:48:00,59.9,36.7,29.98,NNW,337,6.0,14.0,42,0.00,,,0.00,510,Wunderground v.1.15,2013-02-20 22:48:00,
2013-02-20 14:53:00,59.6,37.1,29.97,WSW,246,6.0,14.0,43,0.00,,,0.00,497,Wunderground v.1.15,2013-02-20 22:53:00,
2013-02-20 15:00:00,59.8,36.6,29.97,NW,316,5.0,5.0,42,0.00,,,0.00,483,Wunderground v.1.15,2013-02-20 23:00:00,
2013-02-20 15:05:00,59.9,36.1,29.97,WSW,254,5.0,15.0,41,0.00,,,0.00,469,Wunderground v.1.15,2013-02-20 23:05:00,
2013-02-20 15:12:00,59.8,36.6,29.97,West,279,5.0,15.0,42,0.00,,,0.00,357,Wunderground v.1.15,2013-02-20 23:12:00,
2013-02-20 15:17:00,59.9,36.7,29.97,WSW,250,4.0,15.0,42,0.00,,,0.00,438,Wunderground v.1.15,2013-02-20 23:17:00,
2013-02-20 15:23:00,60.2,35.8,29.97,NW,315,4.0,15.0,40,0.00,,,0.00,422,Wunderground v.1.15,2013-02-20 23:23:00,
2013-02-20 15:30:00,59.8,36.0,29.98,NW,319,6.0,6.0,41,0.00,,,0.00,404,Wunderground v.1.15,2013-02-20 23:30:00,
2013-02-20 15:36:00,59.7,34.7,29.98,NW,319,6.0,15.0,39,0.00,,,0.00,390,Wunderground v.1.15,2013-02-20 23:36:00,
2013-02-20 15:42:00,59.7,34.0,29.98,NW,315,5.0,15.0,38,0.00,,,0.00,374,Wunderground v.1.15,2013-02-20 23:42:00,
2013-02-20 15:47:00,59.7,34.0,29.98,NNW,336,4.0,15.0,38,0.00,,,0.00,357,Wunderground v.1.15,2013-02-20 23:47:00,
2013-02-20 15:53:00,59.6,33.3,29.98,WNW,299,5.0,15.0,37,0.00,,,0.00,339,Wunderground v.1.15,2013-02-20 23:53:00,
2013-02-20 16:00:00,59.4,32.4,29.98,WNW,292,5.0,13.0,36,0.00,,,0.00,318,Wunderground v.1.15,2013-02-21 00:00:00,
2013-02-20 16:06:00,59.4,32.4,29.98,West,272,3.0,13.0,36,0.00,,,0.00,299,Wunderground v.1.15,2013-02-21 00:06:00,
2013-02-20 16:11:00,59.4,32.4,29.99,WNW,291,3.0,5.0,36,0.00,,,0.00,281,Wunderground v.1.15,2013-02-21 00:11:00,
2013-02-20 16:17:00,59.4,33.1,29.99,WNW,299,3.0,13.0,37,0.00,,,0.00,258,Wunderground v.1.15,2013-02-21 00:17:00,
2013-02-20 16:24:00,59.4,32.4,29.99,West,272,3.0,13.0,36,0.00,,,0.00,232,Wunderground v.1.15,2013-02-21 00:24:00,
2013-02-20 16:29:00,59.3,33.7,29.98,West,279,3.0,13.0,38,0.00,,,0.00,209,Wunderground v.1.15,2013-02-21 00:29:00,
2013-02-20 16:35:00,58.9,34.6,29.99,NW,310,5.0,13.0,40,0.00,,,0.00,185,Wunderground v.1.15,2013-02-21 00:35:00,
2013-02-20 16:42:00,58.7,35.0,29.99,West,280,4.0,13.0,41,0.00,,,0.00,162,Wunderground v.1.15,2013-02-21 00:42:00,
2013-02-20 16:47:00,58.5,34.9,29.99,West,281,4.0,13.0,41,0.00,,,0.00,139,Wunderground v.1.15,2013-02-21 00:47:00,
2013-02-20 16:53:00,58.1,35.1,29.99,NW,323,5.0,13.0,42,0.00,,,0.00,116,Wunderground v.1.15,2013-02-21 00:53:00,
2013-02-20 17:00:00,57.7,34.7,29.99,WNW,293,5.0,12.0,42,0.00,,,0.00,65,Wunderground v.1.15,2013-02-21 01:00:00,
2013-02-20 17:06:00,57.3,35.0,29.99,WNW,302,5.0,12.0,43,0.00,,,0.00,28,Wunderground v.1.15,2013-02-21 01:06:00,
2013-02-20 17:11:00,56.8,35.1,29.98,WNW,287,4.0,12.0,44,0.00,,,0.00,25,Wunderground v.1.15,2013-02-21 01:11:00,
2013-02-20 17:17:00,56.5,35.4,29.99,WNW,288,3.0,12.0,45,0.00,,,0.00,21,Wunderground v.1.15,2013-02-21 01:17:00,
2013-02-20 17:23:00,56.2,35.7,29.99,WNW,302,2.0,12.0,46,0.00,,,0.00,19,Wunderground v.1.15,2013-02-21 01:23:00,
2013-02-20 17:29:00,55.8,35.9,30.00,NW,308,3.0,3.0,47,0.00,,,0.00,18,Wunderground v.1.15,2013-02-21 01:29:00,
2013-02-20 17:35:00,55.3,35.4,30.00,NW,311,4.0,12.0,47,0.00,,,0.00,14,Wunderground v.1.15,2013-02-21 01:35:00,
2013-02-20 17:41:00,54.8,35.5,30.00,NW,319,4.0,12.0,48,0.00,,,0.00,12,Wunderground v.1.15,2013-02-21 01:41:00,
2013-02-20 17:47:00,54.5,35.7,30.00,NW,313,4.0,12.0,49,0.00,,,0.00,9,Wunderground v.1.15,2013-02-21 01:47:00,
2013-02-20 17:54:00,54.2,35.9,30.00,NNW,345,3.0,12.0,50,0.00,,,0.00,5,Wunderground v.1.15,2013-02-21 01:54:00,
2013-02-20 18:00:00,54.0,36.3,30.00,WNW,296,1.0,1.0,51,0.00,,,0.00,0,Wunderground v.1.15,2013-02-21 02:00:00,
2013-02-20 18:06:00,53.9,37.1,30.00,WNW,295,0.0,11.0,53,0.00,,,0.00,0,Wunderground v.1.15,2013-02-21 02:06:00,
2013-02-20 18:12:00,53.5,36.3,30.01,WNW,298,0.0,11.0,52,0.00,,,0.00,0,Wunderground v.1.15,2013-02-21 02:12:00,
2013-02-20 18:18:00,53.0,36.8,30.00,NW,304,1.0,11.0,54,0.00,,,0.00,0,Wunderground v.1.15,2013-02-21 02:18:00,
2013-02-20 18:24:00,52.6,36.9,30.01,NW,313,2.0,11.0,55,0.00,,,0.00,0,Wunderground v.1.15,2013-02-21 02:24:00,
2013-02-20 18:30:00,52.1,36.9,30.02,NW,308,2.0,11.0,56,0.00,,,0.00,0,Wunderground v.1.15,2013-02-21 02:30:00,
2013-02-20 18:35:00,51.8,37.0,30.02,NW,323,4.0,11.0,57,0.00,,,0.00,0,Wunderground v.1.15,2013-02-21 02:35:00,
2013-02-20 18:42:00,51.6,37.3,30.02,NW,325,5.0,11.0,58,0.00,,,0.00,0,Wunderground v.1.15,2013-02-21 02:42:00,
2013-02-20 18:47:00,51.3,37.4,30.02,NNW,329,4.0,11.0,59,0.00,,,0.00,0,Wunderground v.1.15,2013-02-21 02:47:00,
2013-02-20 18:53:00,51.0,37.6,30.02,NNW,332,2.0,11.0,60,0.00,,,0.00,0,Wunderground v.1.15,2013-02-21 02:53:00,
2013-02-20 19:00:00,50.8,37.4,30.03,NNW,333,1.0,15.0,60,0.00,,,0.00,0,Wunderground v.1.15,2013-02-21 03:00:00,
2013-02-20 19:06:00,50.5,37.5,30.03,NNW,344,0.0,15.0,61,0.00,,,0.00,0,Wunderground v.1.15,2013-02-21 03:06:00,
2013-02-20 19:12:00,50.1,37.2,30.03,NNW,329,1.0,15.0,61,0.00,,,0.00,0,Wunderground v.1.15,2013-02-21 03:12:00,
2013-02-20 19:18:00,49.8,37.3,30.03,WNW,296,1.0,15.0,62,0.00,,,0.00,0,Wunderground v.1.15,2013-02-21 03:18:00,
2013-02-20 19:24:00,49.5,37.0,30.03,NW,321,1.0,15.0,62,0.00,,,0.00,0,Wunderground v.1.15,2013-02-21 03:24:00,
2013-02-20 19:30:00,49.1,37.0,30.04,NW,323,2.0,2.0,63,0.00,,,0.00,0,Wunderground v.1.15,2013-02-21 03:30:00,
2013-02-20 19:36:00,48.9,37.3,30.04,NW,304,2.0,15.0,64,0.00,,,0.00,0,Wunderground v.1.15,2013-02-21 03:36:00,
2013-02-20 19:41:00,48.7,37.1,30.05,WNW,301,1.0,15.0,64,0.00,,,0.00,0,Wunderground v.1.15,2013-02-21 03:41:00,
2013-02-20 19:47:00,48.4,36.8,30.05,NW,309,2.0,15.0,64,0.00,,,0.00,0,Wunderground v.1.15,2013-02-21 03:47:00,
2013-02-20 19:53:00,48.2,38.1,30.05,WNW,298,2.0,15.0,68,0.00,,,0.00,0,Wunderground v.1.15,2013-02-21 03:53:00,
2013-02-20 20:00:00,48.0,36.8,30.05,WNW,282,1.0,9.0,65,0.00,,,0.00,0,Wunderground v.1.15,2013-02-21 04:00:00,
2013-02-20 20:06:00,47.8,36.6,30.05,NW,309,0.0,9.0,65,0.00,,,0.00,0,Wunderground v.1.15,2013-02-21 04:06:00,
2013-02-20 20:12:00,47.6,36.4,30.05,WSW,245,0.0,9.0,65,0.00,,,0.00,0,Wunderground v.1.15,2013-02-21 04:12:00,
2013-02-20 20:18:00,47.4,36.6,30.05,WSW,245,0.0,9.0,66,0.00,,,0.00,0,Wunderground v.1.15,2013-02-21 04:18:00,
2013-02-20 20:24:00,47.2,36.4,30.05,WSW,245,0.0,9.0,66,0.00,,,0.00,0,Wunderground v.1.15,2013-02-21 04:24:00,
2013-02-20 20:29:00,46.9,36.1,30.06,WSW,245,0.0,9.0,66,0.00,,,0.00,0,Wunderground v.1.15,2013-02-21 04:29:00,
2013-02-20 20:36:00,46.7,36.3,30.06,WSW,245,0.0,9.0,67,0.00,,,0.00,0,Wunderground v.1.15,2013-02-21 04:36:00,
2013-02-20 20:41:00,46.4,36.0,30.06,WSW,245,0.0,9.0,67,0.00,,,0.00,0,Wunderground v.1.15,2013-02-21 04:41:00,
2013-02-20 20:47:00,46.2,36.2,30.06,WSW,245,0.0,9.0,68,0.00,,,0.00,0,Wunderground v.1.15,2013-02-21 04:47:00,
2013-02-20 20:53:00,45.8,35.8,30.06,WSW,245,0.0,9.0,68,0.00,,,0.00,0,Wunderground v.1.15,2013-02-21 04:53:00,
2013-02-20 21:00:00,45.5,35.9,30.06,WSW,245,0.0,1.0,69,0.00,,,0.00,0,Wunderground v.1.15,2013-02-21 05:00:00,
2013-02-20 21:04:00,45.3,35.7,30.06,WSW,245,0.0,1.0,69,0.00,,,0.00,0,Wunderground v.1.15,2013-02-21 05:04:00,
2013-02-20 21:05:00,45.2,35.6,30.06,WSW,245,0.0,1.0,69,0.00,,,0.00,0,Wunderground v.1.15,2013-02-21 05:05:00,
2013-02-20 21:09:00,45.0,35.8,30.06,WSW,245,0.0,1.0,70,0.00,,,0.00,0,Wunderground v.1.15,2013-02-21 05:09:00,
2013-02-20 21:16:00,44.5,35.3,30.06,WSW,245,0.0,1.0,70,0.00,,,0.00,0,Wunderground v.1.15,2013-02-21 05:16:00,
2013-02-20 21:22:00,44.0,35.2,30.07,WSW,245,0.0,1.0,71,0.00,,,0.00,0,Wunderground v.1.15,2013-02-21 05:22:00,
2013-02-20 21:27:00,43.5,35.4,30.07,WSW,245,0.0,1.0,73,0.00,,,0.00,0,Wunderground v.1.15,2013-02-21 05:27:00,
2013-02-20 21:34:00,43.1,35.0,30.07,WSW,245,0.0,1.0,73,0.00,,,0.00,0,Wunderground v.1.15,2013-02-21 05:34:00,
2013-02-20 21:39:00,42.7,35.0,30.08,WSW,245,0.0,1.0,74,0.00,,,0.00,0,Wunderground v.1.15,2013-02-21 05:39:00,
2013-02-20 21:45:00,42.2,34.8,30.08,SW,216,0.0,1.0,75,0.00,,,0.00,0,Wunderground v.1.15,2013-02-21 05:45:00,
2013-02-20 21:52:00,41.8,34.8,30.08,SW,216,0.0,1.0,76,0.00,,,0.00,0,Wunderground v.1.15,2013-02-21 05:52:00,
2013-02-20 22:00:00,41.3,34.6,30.08,SW,216,0.0,1.0,77,0.00,,,0.00,0,Wunderground v.1.15,2013-02-21 06:00:00,
2013-02-20 22:05:00,40.9,34.6,30.08,SW,216,0.0,1.0,78,0.00,,,0.00,0,Wunderground v.1.15,2013-02-21 06:05:00,
2013-02-20 22:11:00,40.5,34.5,30.08,SW,216,0.0,1.0,79,0.00,,,0.00,0,Wunderground v.1.15,2013-02-21 06:11:00,
2013-02-20 22:18:00,40.2,34.2,30.08,SW,216,0.0,1.0,79,0.00,,,0.00,0,Wunderground v.1.15,2013-02-21 06:18:00,
2013-02-20 22:23:00,39.9,33.9,30.08,SW,216,0.0,1.0,79,0.00,,,0.00,0,Wunderground v.1.15,2013-02-21 06:23:00,
2013-02-20 22:30:00,39.7,34.0,30.08,SW,227,0.0,1.0,80,0.00,,,0.00,0,Wunderground v.1.15,2013-02-21 06:30:00,
2013-02-20 22:36:00,39.5,34.2,30.07,SW,227,0.0,1.0,81,0.00,,,0.00,0,Wunderground v.1.15,2013-02-21 06:36:00,
2013-02-20 22:42:00,39.3,34.0,30.07,SW,227,0.0,1.0,81,0.00,,,0.00,0,Wunderground v.1.15,2013-02-21 06:42:00,
2013-02-20 22:48:00,39.1,33.8,30.07,SW,227,0.0,1.0,81,0.00,,,0.00,0,Wunderground v.1.15,2013-02-21 06:48:00,
2013-02-20 22:53:00,38.7,33.4,30.08,SW,227,0.0,1.0,81,0.00,,,0.00,0,Wunderground v.1.15,2013-02-21 06:53:00,
2013-02-20 23:00:00,38.3,33.3,30.08,SW,227,0.0,3.0,82,0.00,,,0.00,0,Wunderground v.1.15,2013-02-21 07:00:00,
2013-02-20 23:05:00,38.1,33.1,30.08,SW,227,0.0,3.0,82,0.00,,,0.00,0,Wunderground v.1.15,2013-02-21 07:05:00,
2013-02-20 23:12:00,37.9,33.2,30.08,SW,227,0.0,3.0,83,0.00,,,0.00,0,Wunderground v.1.15,2013-02-21 07:12:00,
2013-02-20 23:18:00,37.7,33.0,30.08,SW,227,0.0,3.0,83,0.00,,,0.00,0,Wunderground v.1.15,2013-02-21 07:18:00,
2013-02-20 23:24:00,37.5,32.8,30.08,SW,227,0.0,3.0,83,0.00,,,0.00,0,Wunderground v.1.15,2013-02-21 07:24:00,
2013-02-20 23:29:00,37.3,32.9,30.08,SW,227,0.0,3.0,84,0.00,,,0.00,0,Wunderground v.1.15,2013-02-21 07:29:00,
2013-02-20 23:35:00,37.1,32.7,30.08,SW,227,0.0,3.0,84,0.00,,,0.00,0,Wunderground v.1.15,2013-02-21 07:35:00,
2013-02-20 23:42:00,36.8,32.4,30.08,SW,227,0.0,3.0,84,0.00,,,0.00,0,Wunderground v.1.15,2013-02-21 07:42:00,
2013-02-20 23:48:00,36.6,32.2,30.08,SW,227,0.0,3.0,84,0.00,,,0.00,0,Wunderground v.1.15,2013-02-21 07:48:00,
2013-02-20 23:54:00,36.4,32.3,30.08,SW,227,0.0,3.0,85,0.00,,,0.00,0,Wunderground v.1.15,2013-02-21 07:54:00,